sensor_id;sensor_type;location;lat;lon;timestamp;P1;durP1;ratioP1;P2;durP2;ratioP2
28086;SDS011;15392;48.912;8.380;2023-04-03T00:01:36;0.38;;;0.38;;
28086;SDS011;15392;48.912;8.380;2023-04-03T00:04:03;0.55;;;0.50;;
28086;SDS011;15392;48.912;8.380;2023-04-03T00:06:30;1.40;;;0.60;;
28086;SDS011;15392;48.912;8.380;2023-04-03T00:08:56;0.30;;;0.30;;
28086;SDS011;15392;48.912;8.380;2023-04-03T00:11:22;0.30;;;0.30;;
28086;SDS011;15392;48.912;8.380;2023-04-03T00:13:48;0.30;;;0.30;;
28086;SDS011;15392;48.912;8.380;2023-04-03T00:16:14;0.60;;;0.60;;
28086;SDS011;15392;48.912;8.380;2023-04-03T00:18:40;0.50;;;0.50;;
28086;SDS011;15392;48.912;8.380;2023-04-03T00:21:06;0.40;;;0.40;;
28086;SDS011;15392;48.912;8.380;2023-04-03T00:23:34;0.40;;;0.40;;
28086;SDS011;15392;48.912;8.380;2023-04-03T00:26:00;0.40;;;0.40;;
28086;SDS011;15392;48.912;8.380;2023-04-03T00:28:26;0.50;;;0.50;;
28086;SDS011;15392;48.912;8.380;2023-04-03T00:30:52;0.60;;;0.60;;
28086;SDS011;15392;48.912;8.380;2023-04-03T00:33:18;0.30;;;0.30;;
28086;SDS011;15392;48.912;8.380;2023-04-03T00:35:46;0.60;;;0.60;;
28086;SDS011;15392;48.912;8.380;2023-04-03T00:38:13;0.50;;;0.50;;
28086;SDS011;15392;48.912;8.380;2023-04-03T00:40:42;0.30;;;0.30;;
28086;SDS011;15392;48.912;8.380;2023-04-03T00:43:11;0.30;;;0.30;;
28086;SDS011;15392;48.912;8.380;2023-04-03T00:45:43;0.40;;;0.40;;
28086;SDS011;15392;48.912;8.380;2023-04-03T00:48:13;0.45;;;0.45;;
28086;SDS011;15392;48.912;8.380;2023-04-03T00:50:43;0.47;;;0.47;;
28086;SDS011;15392;48.912;8.380;2023-04-03T00:53:11;0.35;;;0.35;;
28086;SDS011;15392;48.912;8.380;2023-04-03T00:55:42;0.30;;;0.30;;
28086;SDS011;15392;48.912;8.380;2023-04-03T00:58:10;0.50;;;0.50;;
28086;SDS011;15392;48.912;8.380;2023-04-03T01:00:37;0.40;;;0.40;;
28086;SDS011;15392;48.912;8.380;2023-04-03T01:03:07;0.40;;;0.40;;
28086;SDS011;15392;48.912;8.380;2023-04-03T01:05:33;0.35;;;0.35;;
28086;SDS011;15392;48.912;8.380;2023-04-03T01:07:59;0.40;;;0.40;;
28086;SDS011;15392;48.912;8.380;2023-04-03T01:10:25;0.40;;;0.40;;
28086;SDS011;15392;48.912;8.380;2023-04-03T01:12:51;0.40;;;0.40;;
28086;SDS011;15392;48.912;8.380;2023-04-03T01:15:22;0.40;;;0.40;;
28086;SDS011;15392;48.912;8.380;2023-04-03T01:25:45;0.40;;;0.40;;
28086;SDS011;15392;48.912;8.380;2023-04-03T01:28:13;0.30;;;0.30;;
28086;SDS011;15392;48.912;8.380;2023-04-03T01:33:15;0.30;;;0.30;;
28086;SDS011;15392;48.912;8.380;2023-04-03T01:35:41;0.40;;;0.40;;
28086;SDS011;15392;48.912;8.380;2023-04-03T01:38:07;0.25;;;0.25;;
28086;SDS011;15392;48.912;8.380;2023-04-03T01:40:33;0.35;;;0.35;;
28086;SDS011;15392;48.912;8.380;2023-04-03T01:42:58;0.30;;;0.30;;
28086;SDS011;15392;48.912;8.380;2023-04-03T01:45:24;0.40;;;0.40;;
28086;SDS011;15392;48.912;8.380;2023-04-03T01:47:50;0.20;;;0.20;;
28086;SDS011;15392;48.912;8.380;2023-04-03T01:50:16;0.35;;;0.35;;
28086;SDS011;15392;48.912;8.380;2023-04-03T01:52:41;0.30;;;0.30;;
28086;SDS011;15392;48.912;8.380;2023-04-03T01:55:07;0.22;;;0.22;;
28086;SDS011;15392;48.912;8.380;2023-04-03T01:57:33;0.30;;;0.30;;
28086;SDS011;15392;48.912;8.380;2023-04-03T01:59:59;0.30;;;0.30;;
28086;SDS011;15392;48.912;8.380;2023-04-03T02:02:25;0.40;;;0.40;;
28086;SDS011;15392;48.912;8.380;2023-04-03T02:04:50;0.35;;;0.35;;
28086;SDS011;15392;48.912;8.380;2023-04-03T02:07:16;0.20;;;0.20;;
28086;SDS011;15392;48.912;8.380;2023-04-03T02:09:42;0.40;;;0.40;;
28086;SDS011;15392;48.912;8.380;2023-04-03T02:12:07;0.30;;;0.30;;
28086;SDS011;15392;48.912;8.380;2023-04-03T02:14:33;0.68;;;0.60;;
28086;SDS011;15392;48.912;8.380;2023-04-03T02:17:00;0.38;;;0.38;;
28086;SDS011;15392;48.912;8.380;2023-04-03T02:19:30;0.30;;;0.30;;
28086;SDS011;15392;48.912;8.380;2023-04-03T02:21:56;0.40;;;0.40;;
28086;SDS011;15392;48.912;8.380;2023-04-03T02:24:21;0.32;;;0.32;;
28086;SDS011;15392;48.912;8.380;2023-04-03T02:26:47;0.75;;;0.40;;
28086;SDS011;15392;48.912;8.380;2023-04-03T02:29:13;0.40;;;0.40;;
28086;SDS011;15392;48.912;8.380;2023-04-03T02:31:39;0.30;;;0.30;;
28086;SDS011;15392;48.912;8.380;2023-04-03T02:34:04;0.35;;;0.35;;
28086;SDS011;15392;48.912;8.380;2023-04-03T02:36:30;0.20;;;0.20;;
28086;SDS011;15392;48.912;8.380;2023-04-03T02:38:56;0.20;;;0.20;;
28086;SDS011;15392;48.912;8.380;2023-04-03T02:41:22;0.40;;;0.40;;
28086;SDS011;15392;48.912;8.380;2023-04-03T02:43:48;0.40;;;0.40;;
28086;SDS011;15392;48.912;8.380;2023-04-03T02:46:14;0.40;;;0.40;;
28086;SDS011;15392;48.912;8.380;2023-04-03T02:48:40;0.40;;;0.40;;
28086;SDS011;15392;48.912;8.380;2023-04-03T02:51:06;0.40;;;0.40;;
28086;SDS011;15392;48.912;8.380;2023-04-03T02:53:32;0.40;;;0.40;;
28086;SDS011;15392;48.912;8.380;2023-04-03T02:55:57;0.38;;;0.38;;
28086;SDS011;15392;48.912;8.380;2023-04-03T02:58:23;0.30;;;0.30;;
28086;SDS011;15392;48.912;8.380;2023-04-03T03:00:49;0.30;;;0.30;;
28086;SDS011;15392;48.912;8.380;2023-04-03T03:03:14;0.45;;;0.45;;
28086;SDS011;15392;48.912;8.380;2023-04-03T03:05:40;0.40;;;0.40;;
28086;SDS011;15392;48.912;8.380;2023-04-03T03:08:06;0.40;;;0.40;;
28086;SDS011;15392;48.912;8.380;2023-04-03T03:10:32;0.40;;;0.40;;
28086;SDS011;15392;48.912;8.380;2023-04-03T03:12:57;0.50;;;0.30;;
28086;SDS011;15392;48.912;8.380;2023-04-03T03:15:23;0.28;;;0.28;;
28086;SDS011;15392;48.912;8.380;2023-04-03T03:17:49;1.17;;;0.50;;
28086;SDS011;15392;48.912;8.380;2023-04-03T03:20:15;0.47;;;0.32;;
28086;SDS011;15392;48.912;8.380;2023-04-03T03:22:40;0.35;;;0.35;;
28086;SDS011;15392;48.912;8.380;2023-04-03T03:25:06;0.22;;;0.22;;
28086;SDS011;15392;48.912;8.380;2023-04-03T03:27:33;0.30;;;0.30;;
28086;SDS011;15392;48.912;8.380;2023-04-03T03:29:58;0.40;;;0.40;;
28086;SDS011;15392;48.912;8.380;2023-04-03T03:32:24;0.30;;;0.30;;
28086;SDS011;15392;48.912;8.380;2023-04-03T03:34:50;0.35;;;0.35;;
28086;SDS011;15392;48.912;8.380;2023-04-03T03:37:16;0.40;;;0.40;;
28086;SDS011;15392;48.912;8.380;2023-04-03T03:39:42;0.50;;;0.50;;
28086;SDS011;15392;48.912;8.380;2023-04-03T03:42:07;0.50;;;0.50;;
28086;SDS011;15392;48.912;8.380;2023-04-03T03:44:33;0.40;;;0.40;;
28086;SDS011;15392;48.912;8.380;2023-04-03T03:46:59;0.47;;;0.30;;
28086;SDS011;15392;48.912;8.380;2023-04-03T03:49:24;0.30;;;0.30;;
28086;SDS011;15392;48.912;8.380;2023-04-03T03:51:50;0.40;;;0.30;;
28086;SDS011;15392;48.912;8.380;2023-04-03T03:54:16;0.38;;;0.38;;
28086;SDS011;15392;48.912;8.380;2023-04-03T03:56:42;0.40;;;0.40;;
28086;SDS011;15392;48.912;8.380;2023-04-03T03:59:08;0.40;;;0.40;;
28086;SDS011;15392;48.912;8.380;2023-04-03T04:01:35;0.32;;;0.32;;
28086;SDS011;15392;48.912;8.380;2023-04-03T04:04:01;0.40;;;0.40;;
28086;SDS011;15392;48.912;8.380;2023-04-03T04:06:27;0.40;;;0.40;;
28086;SDS011;15392;48.912;8.380;2023-04-03T04:08:53;0.40;;;0.40;;
28086;SDS011;15392;48.912;8.380;2023-04-03T04:11:19;0.40;;;0.40;;
28086;SDS011;15392;48.912;8.380;2023-04-03T04:13:45;0.60;;;0.60;;
28086;SDS011;15392;48.912;8.380;2023-04-03T04:16:11;0.40;;;0.40;;
28086;SDS011;15392;48.912;8.380;2023-04-03T04:18:37;0.50;;;0.50;;
28086;SDS011;15392;48.912;8.380;2023-04-03T04:21:02;0.40;;;0.40;;
28086;SDS011;15392;48.912;8.380;2023-04-03T04:23:28;0.30;;;0.30;;
28086;SDS011;15392;48.912;8.380;2023-04-03T04:25:54;0.60;;;0.45;;
28086;SDS011;15392;48.912;8.380;2023-04-03T04:28:20;0.30;;;0.30;;
28086;SDS011;15392;48.912;8.380;2023-04-03T04:30:45;0.40;;;0.40;;
28086;SDS011;15392;48.912;8.380;2023-04-03T04:33:11;0.40;;;0.40;;
28086;SDS011;15392;48.912;8.380;2023-04-03T04:35:38;0.40;;;0.40;;
28086;SDS011;15392;48.912;8.380;2023-04-03T04:38:06;0.47;;;0.47;;
28086;SDS011;15392;48.912;8.380;2023-04-03T04:40:33;0.52;;;0.52;;
28086;SDS011;15392;48.912;8.380;2023-04-03T04:42:59;0.50;;;0.50;;
28086;SDS011;15392;48.912;8.380;2023-04-03T04:45:25;0.40;;;0.40;;
28086;SDS011;15392;48.912;8.380;2023-04-03T04:47:51;0.40;;;0.40;;
28086;SDS011;15392;48.912;8.380;2023-04-03T04:50:18;0.50;;;0.50;;
28086;SDS011;15392;48.912;8.380;2023-04-03T04:52:43;0.47;;;0.47;;
28086;SDS011;15392;48.912;8.380;2023-04-03T04:55:09;0.30;;;0.30;;
28086;SDS011;15392;48.912;8.380;2023-04-03T04:57:35;0.43;;;0.43;;
28086;SDS011;15392;48.912;8.380;2023-04-03T05:00:02;0.38;;;0.38;;
28086;SDS011;15392;48.912;8.380;2023-04-03T05:02:28;0.38;;;0.38;;
28086;SDS011;15392;48.912;8.380;2023-04-03T05:04:54;0.57;;;0.57;;
28086;SDS011;15392;48.912;8.380;2023-04-03T05:07:20;0.50;;;0.50;;
28086;SDS011;15392;48.912;8.380;2023-04-03T05:09:45;0.50;;;0.50;;
28086;SDS011;15392;48.912;8.380;2023-04-03T05:12:11;0.50;;;0.50;;
28086;SDS011;15392;48.912;8.380;2023-04-03T05:14:37;0.32;;;0.32;;
28086;SDS011;15392;48.912;8.380;2023-04-03T05:17:02;0.60;;;0.60;;
28086;SDS011;15392;48.912;8.380;2023-04-03T05:19:28;0.50;;;0.50;;
28086;SDS011;15392;48.912;8.380;2023-04-03T05:21:54;0.60;;;0.60;;
28086;SDS011;15392;48.912;8.380;2023-04-03T05:24:20;0.47;;;0.47;;
28086;SDS011;15392;48.912;8.380;2023-04-03T05:26:45;0.50;;;0.50;;
28086;SDS011;15392;48.912;8.380;2023-04-03T05:29:11;0.47;;;0.47;;
28086;SDS011;15392;48.912;8.380;2023-04-03T05:31:37;0.50;;;0.50;;
28086;SDS011;15392;48.912;8.380;2023-04-03T05:34:03;0.50;;;0.50;;
28086;SDS011;15392;48.912;8.380;2023-04-03T05:36:29;0.50;;;0.50;;
28086;SDS011;15392;48.912;8.380;2023-04-03T05:38:55;0.40;;;0.40;;
28086;SDS011;15392;48.912;8.380;2023-04-03T05:41:21;0.47;;;0.47;;
28086;SDS011;15392;48.912;8.380;2023-04-03T05:43:47;0.40;;;0.40;;
28086;SDS011;15392;48.912;8.380;2023-04-03T05:46:17;0.40;;;0.40;;
28086;SDS011;15392;48.912;8.380;2023-04-03T05:48:45;0.50;;;0.50;;
28086;SDS011;15392;48.912;8.380;2023-04-03T05:51:30;0.65;;;0.65;;
28086;SDS011;15392;48.912;8.380;2023-04-03T05:54:03;0.40;;;0.40;;
28086;SDS011;15392;48.912;8.380;2023-04-03T05:56:36;0.40;;;0.40;;
28086;SDS011;15392;48.912;8.380;2023-04-03T05:59:01;0.50;;;0.50;;
28086;SDS011;15392;48.912;8.380;2023-04-03T06:01:27;0.45;;;0.45;;
28086;SDS011;15392;48.912;8.380;2023-04-03T06:03:53;0.40;;;0.40;;
28086;SDS011;15392;48.912;8.380;2023-04-03T06:06:19;0.40;;;0.40;;
28086;SDS011;15392;48.912;8.380;2023-04-03T06:08:45;0.40;;;0.40;;
28086;SDS011;15392;48.912;8.380;2023-04-03T06:11:11;0.52;;;0.52;;
28086;SDS011;15392;48.912;8.380;2023-04-03T06:13:36;0.73;;;0.60;;
28086;SDS011;15392;48.912;8.380;2023-04-03T06:16:03;0.63;;;0.63;;
28086;SDS011;15392;48.912;8.380;2023-04-03T06:18:30;1.08;;;1.08;;
28086;SDS011;15392;48.912;8.380;2023-04-03T06:20:56;0.88;;;0.88;;
28086;SDS011;15392;48.912;8.380;2023-04-03T06:23:23;0.90;;;0.90;;
28086;SDS011;15392;48.912;8.380;2023-04-03T06:25:49;0.50;;;0.50;;
28086;SDS011;15392;48.912;8.380;2023-04-03T06:28:14;0.90;;;0.90;;
28086;SDS011;15392;48.912;8.380;2023-04-03T06:30:40;0.60;;;0.60;;
28086;SDS011;15392;48.912;8.380;2023-04-03T06:33:06;0.70;;;0.70;;
28086;SDS011;15392;48.912;8.380;2023-04-03T06:35:32;0.70;;;0.70;;
28086;SDS011;15392;48.912;8.380;2023-04-03T06:37:59;0.50;;;0.50;;
28086;SDS011;15392;48.912;8.380;2023-04-03T06:40:26;0.40;;;0.40;;
28086;SDS011;15392;48.912;8.380;2023-04-03T06:42:51;0.55;;;0.55;;
28086;SDS011;15392;48.912;8.380;2023-04-03T06:45:17;0.80;;;0.80;;
28086;SDS011;15392;48.912;8.380;2023-04-03T06:47:43;0.70;;;0.70;;
28086;SDS011;15392;48.912;8.380;2023-04-03T06:50:10;0.70;;;0.70;;
28086;SDS011;15392;48.912;8.380;2023-04-03T06:52:39;0.70;;;0.70;;
28086;SDS011;15392;48.912;8.380;2023-04-03T06:55:05;0.60;;;0.60;;
28086;SDS011;15392;48.912;8.380;2023-04-03T06:57:32;0.70;;;0.70;;
28086;SDS011;15392;48.912;8.380;2023-04-03T06:59:58;0.73;;;0.73;;
28086;SDS011;15392;48.912;8.380;2023-04-03T07:02:23;0.65;;;0.65;;
28086;SDS011;15392;48.912;8.380;2023-04-03T07:04:49;0.82;;;0.82;;
28086;SDS011;15392;48.912;8.380;2023-04-03T07:07:15;0.60;;;0.60;;
28086;SDS011;15392;48.912;8.380;2023-04-03T07:09:42;0.80;;;0.80;;
28086;SDS011;15392;48.912;8.380;2023-04-03T07:12:08;0.65;;;0.65;;
28086;SDS011;15392;48.912;8.380;2023-04-03T07:14:34;0.82;;;0.82;;
28086;SDS011;15392;48.912;8.380;2023-04-03T07:17:00;0.60;;;0.60;;
28086;SDS011;15392;48.912;8.380;2023-04-03T07:19:25;0.68;;;0.68;;
28086;SDS011;15392;48.912;8.380;2023-04-03T07:21:53;0.63;;;0.63;;
28086;SDS011;15392;48.912;8.380;2023-04-03T07:24:19;0.65;;;0.60;;
28086;SDS011;15392;48.912;8.380;2023-04-03T07:26:48;0.77;;;0.77;;
28086;SDS011;15392;48.912;8.380;2023-04-03T07:31:41;0.50;;;0.50;;
28086;SDS011;15392;48.912;8.380;2023-04-03T07:34:08;0.55;;;0.55;;
28086;SDS011;15392;48.912;8.380;2023-04-03T07:36:34;0.50;;;0.50;;
28086;SDS011;15392;48.912;8.380;2023-04-03T07:39:01;0.60;;;0.60;;
28086;SDS011;15392;48.912;8.380;2023-04-03T07:41:26;0.63;;;0.63;;
28086;SDS011;15392;48.912;8.380;2023-04-03T07:43:53;0.60;;;0.60;;
28086;SDS011;15392;48.912;8.380;2023-04-03T07:46:21;0.60;;;0.60;;
28086;SDS011;15392;48.912;8.380;2023-04-03T07:48:48;0.70;;;0.70;;
28086;SDS011;15392;48.912;8.380;2023-04-03T07:51:13;0.57;;;0.57;;
28086;SDS011;15392;48.912;8.380;2023-04-03T07:53:40;0.80;;;0.80;;
28086;SDS011;15392;48.912;8.380;2023-04-03T07:56:06;0.73;;;0.73;;
28086;SDS011;15392;48.912;8.380;2023-04-03T07:58:32;0.70;;;0.70;;
28086;SDS011;15392;48.912;8.380;2023-04-03T08:00:58;1.10;;;1.10;;
28086;SDS011;15392;48.912;8.380;2023-04-03T08:03:24;1.10;;;1.05;;
28086;SDS011;15392;48.912;8.380;2023-04-03T08:05:50;0.80;;;0.80;;
28086;SDS011;15392;48.912;8.380;2023-04-03T08:08:22;1.15;;;1.05;;
28086;SDS011;15392;48.912;8.380;2023-04-03T08:10:52;2.28;;;1.20;;
28086;SDS011;15392;48.912;8.380;2023-04-03T08:15:47;0.77;;;0.77;;
28086;SDS011;15392;48.912;8.380;2023-04-03T08:18:13;0.85;;;0.85;;
28086;SDS011;15392;48.912;8.380;2023-04-03T08:20:40;0.73;;;0.73;;
28086;SDS011;15392;48.912;8.380;2023-04-03T08:23:06;1.00;;;0.93;;
28086;SDS011;15392;48.912;8.380;2023-04-03T08:25:33;0.55;;;0.55;;
28086;SDS011;15392;48.912;8.380;2023-04-03T08:28:03;0.82;;;0.82;;
28086;SDS011;15392;48.912;8.380;2023-04-03T08:30:29;0.75;;;0.75;;
28086;SDS011;15392;48.912;8.380;2023-04-03T08:32:56;1.00;;;1.00;;
28086;SDS011;15392;48.912;8.380;2023-04-03T08:35:21;1.10;;;1.00;;
28086;SDS011;15392;48.912;8.380;2023-04-03T08:37:47;0.82;;;0.82;;
28086;SDS011;15392;48.912;8.380;2023-04-03T08:40:14;0.70;;;0.70;;
28086;SDS011;15392;48.912;8.380;2023-04-03T08:42:54;0.80;;;0.80;;
28086;SDS011;15392;48.912;8.380;2023-04-03T08:45:31;0.90;;;0.90;;
28086;SDS011;15392;48.912;8.380;2023-04-03T08:48:14;0.85;;;0.82;;
28086;SDS011;15392;48.912;8.380;2023-04-03T08:50:47;0.95;;;0.95;;
28086;SDS011;15392;48.912;8.380;2023-04-03T08:53:22;1.00;;;1.00;;
28086;SDS011;15392;48.912;8.380;2023-04-03T08:55:53;0.70;;;0.70;;
28086;SDS011;15392;48.912;8.380;2023-04-03T08:58:27;0.80;;;0.80;;
28086;SDS011;15392;48.912;8.380;2023-04-03T09:00:58;0.63;;;0.63;;
28086;SDS011;15392;48.912;8.380;2023-04-03T09:03:40;0.60;;;0.60;;
28086;SDS011;15392;48.912;8.380;2023-04-03T09:06:07;1.17;;;0.60;;
28086;SDS011;15392;48.912;8.380;2023-04-03T09:08:47;1.02;;;0.70;;
28086;SDS011;15392;48.912;8.380;2023-04-03T09:11:46;1.40;;;0.60;;
28086;SDS011;15392;48.912;8.380;2023-04-03T09:23:37;0.50;;;0.50;;
28086;SDS011;15392;48.912;8.380;2023-04-03T09:28:54;0.60;;;0.60;;
28086;SDS011;15392;48.912;8.380;2023-04-03T09:31:37;1.02;;;0.60;;
28086;SDS011;15392;48.912;8.380;2023-04-03T09:34:18;0.52;;;0.52;;
28086;SDS011;15392;48.912;8.380;2023-04-03T09:36:54;1.05;;;0.60;;
28086;SDS011;15392;48.912;8.380;2023-04-03T09:39:24;0.65;;;0.65;;
28086;SDS011;15392;48.912;8.380;2023-04-03T09:42:03;0.70;;;0.70;;
28086;SDS011;15392;48.912;8.380;2023-04-03T09:44:37;0.50;;;0.50;;
28086;SDS011;15392;48.912;8.380;2023-04-03T09:47:22;0.60;;;0.60;;
28086;SDS011;15392;48.912;8.380;2023-04-03T09:52:43;0.70;;;0.68;;
28086;SDS011;15392;48.912;8.380;2023-04-03T09:55:15;0.57;;;0.57;;
28086;SDS011;15392;48.912;8.380;2023-04-03T09:57:46;0.60;;;0.60;;
28086;SDS011;15392;48.912;8.380;2023-04-03T10:00:36;0.60;;;0.60;;
28086;SDS011;15392;48.912;8.380;2023-04-03T10:03:04;0.50;;;0.50;;
28086;SDS011;15392;48.912;8.380;2023-04-03T10:11:04;0.50;;;0.50;;
28086;SDS011;15392;48.912;8.380;2023-04-03T10:13:52;0.40;;;0.40;;
28086;SDS011;15392;48.912;8.380;2023-04-03T10:16:26;0.50;;;0.50;;
28086;SDS011;15392;48.912;8.380;2023-04-03T10:22:04;0.50;;;0.50;;
28086;SDS011;15392;48.912;8.380;2023-04-03T10:33:19;0.40;;;0.40;;
28086;SDS011;15392;48.912;8.380;2023-04-03T10:39:20;1.40;;;0.40;;
28086;SDS011;15392;48.912;8.380;2023-04-03T10:45:42;0.40;;;0.40;;
28086;SDS011;15392;48.912;8.380;2023-04-03T10:48:29;0.40;;;0.40;;
28086;SDS011;15392;48.912;8.380;2023-04-03T10:51:22;0.47;;;0.47;;
28086;SDS011;15392;48.912;8.380;2023-04-03T11:02:23;0.40;;;0.40;;
28086;SDS011;15392;48.912;8.380;2023-04-03T11:05:26;0.35;;;0.35;;
28086;SDS011;15392;48.912;8.380;2023-04-03T11:08:06;0.35;;;0.35;;
28086;SDS011;15392;48.912;8.380;2023-04-03T11:11:03;0.38;;;0.38;;
28086;SDS011;15392;48.912;8.380;2023-04-03T11:16:52;0.50;;;0.50;;
28086;SDS011;15392;48.912;8.380;2023-04-03T11:25:30;0.50;;;0.50;;
28086;SDS011;15392;48.912;8.380;2023-04-03T11:28:00;0.50;;;0.50;;
28086;SDS011;15392;48.912;8.380;2023-04-03T11:30:33;0.40;;;0.40;;
28086;SDS011;15392;48.912;8.380;2023-04-03T11:36:07;0.45;;;0.45;;
28086;SDS011;15392;48.912;8.380;2023-04-03T11:38:45;0.63;;;0.60;;
28086;SDS011;15392;48.912;8.380;2023-04-03T11:41:13;0.63;;;0.50;;
28086;SDS011;15392;48.912;8.380;2023-04-03T11:43:41;0.47;;;0.47;;
28086;SDS011;15392;48.912;8.380;2023-04-03T11:46:22;0.55;;;0.55;;
28086;SDS011;15392;48.912;8.380;2023-04-03T11:48:52;0.40;;;0.40;;
28086;SDS011;15392;48.912;8.380;2023-04-03T11:53:52;0.40;;;0.40;;
28086;SDS011;15392;48.912;8.380;2023-04-03T12:04:24;0.40;;;0.40;;
28086;SDS011;15392;48.912;8.380;2023-04-03T12:06:59;0.52;;;0.52;;
28086;SDS011;15392;48.912;8.380;2023-04-03T12:12:28;0.40;;;0.40;;
28086;SDS011;15392;48.912;8.380;2023-04-03T12:21:12;1.23;;;1.13;;
28086;SDS011;15392;48.912;8.380;2023-04-03T12:27:13;0.90;;;0.90;;
28086;SDS011;15392;48.912;8.380;2023-04-03T12:29:52;1.38;;;1.35;;
28086;SDS011;15392;48.912;8.380;2023-04-03T12:48:54;1.17;;;1.17;;
28086;SDS011;15392;48.912;8.380;2023-04-03T12:51:42;0.98;;;0.98;;
28086;SDS011;15392;48.912;8.380;2023-04-03T12:54:18;0.73;;;0.73;;
28086;SDS011;15392;48.912;8.380;2023-04-03T12:56:58;0.70;;;0.70;;
28086;SDS011;15392;48.912;8.380;2023-04-03T12:59:44;0.50;;;0.50;;
28086;SDS011;15392;48.912;8.380;2023-04-03T13:02:25;0.50;;;0.50;;
28086;SDS011;15392;48.912;8.380;2023-04-03T13:04:59;0.50;;;0.50;;
28086;SDS011;15392;48.912;8.380;2023-04-03T13:07:35;0.55;;;0.52;;
28086;SDS011;15392;48.912;8.380;2023-04-03T13:12:33;0.52;;;0.52;;
28086;SDS011;15392;48.912;8.380;2023-04-03T13:15:02;0.73;;;0.73;;
28086;SDS011;15392;48.912;8.380;2023-04-03T13:17:41;0.40;;;0.40;;
28086;SDS011;15392;48.912;8.380;2023-04-03T13:20:28;0.60;;;0.47;;
28086;SDS011;15392;48.912;8.380;2023-04-03T13:22:59;0.50;;;0.50;;
28086;SDS011;15392;48.912;8.380;2023-04-03T13:25:32;0.43;;;0.40;;
28086;SDS011;15392;48.912;8.380;2023-04-03T13:28:01;0.50;;;0.50;;
28086;SDS011;15392;48.912;8.380;2023-04-03T13:30:32;0.60;;;0.60;;
28086;SDS011;15392;48.912;8.380;2023-04-03T13:33:02;0.80;;;0.80;;
28086;SDS011;15392;48.912;8.380;2023-04-03T13:35:42;0.50;;;0.50;;
28086;SDS011;15392;48.912;8.380;2023-04-03T13:41:04;0.52;;;0.52;;
28086;SDS011;15392;48.912;8.380;2023-04-03T13:43:51;0.63;;;0.63;;
28086;SDS011;15392;48.912;8.380;2023-04-03T13:48:45;0.50;;;0.50;;
28086;SDS011;15392;48.912;8.380;2023-04-03T13:53:52;1.48;;;0.60;;
28086;SDS011;15392;48.912;8.380;2023-04-03T13:56:30;0.60;;;0.60;;
28086;SDS011;15392;48.912;8.380;2023-04-03T13:59:41;0.50;;;0.50;;
28086;SDS011;15392;48.912;8.380;2023-04-03T14:01:50;0.50;;;0.50;;
28086;SDS011;15392;48.912;8.380;2023-04-03T14:07:15;0.57;;;0.52;;
28086;SDS011;15392;48.912;8.380;2023-04-03T14:09:43;0.40;;;0.30;;
28086;SDS011;15392;48.912;8.380;2023-04-03T14:12:13;1.00;;;0.57;;
28086;SDS011;15392;48.912;8.380;2023-04-03T14:14:56;9.70;;;0.90;;
28086;SDS011;15392;48.912;8.380;2023-04-03T14:17:24;0.60;;;0.60;;
28086;SDS011;15392;48.912;8.380;2023-04-03T14:19:53;0.50;;;0.50;;
28086;SDS011;15392;48.912;8.380;2023-04-03T14:22:21;0.82;;;0.82;;
28086;SDS011;15392;48.912;8.380;2023-04-03T14:24:51;0.82;;;0.82;;
28086;SDS011;15392;48.912;8.380;2023-04-03T14:27:22;0.63;;;0.63;;
28086;SDS011;15392;48.912;8.380;2023-04-03T14:29:58;1.13;;;0.70;;
28086;SDS011;15392;48.912;8.380;2023-04-03T14:32:25;0.70;;;0.70;;
28086;SDS011;15392;48.912;8.380;2023-04-03T14:34:52;0.50;;;0.50;;
28086;SDS011;15392;48.912;8.380;2023-04-03T14:37:20;0.68;;;0.68;;
28086;SDS011;15392;48.912;8.380;2023-04-03T14:39:48;0.70;;;0.70;;
28086;SDS011;15392;48.912;8.380;2023-04-03T14:42:17;0.80;;;0.70;;
28086;SDS011;15392;48.912;8.380;2023-04-03T14:44:47;0.50;;;0.50;;
28086;SDS011;15392;48.912;8.380;2023-04-03T14:47:14;0.47;;;0.47;;
28086;SDS011;15392;48.912;8.380;2023-04-03T14:49:52;0.45;;;0.45;;
28086;SDS011;15392;48.912;8.380;2023-04-03T14:52:22;0.43;;;0.43;;
28086;SDS011;15392;48.912;8.380;2023-04-03T14:54:56;0.57;;;0.57;;
28086;SDS011;15392;48.912;8.380;2023-04-03T14:57:23;0.50;;;0.50;;
28086;SDS011;15392;48.912;8.380;2023-04-03T14:59:51;0.52;;;0.52;;
28086;SDS011;15392;48.912;8.380;2023-04-03T15:04:58;0.47;;;0.47;;
28086;SDS011;15392;48.912;8.380;2023-04-03T15:07:28;0.40;;;0.40;;
28086;SDS011;15392;48.912;8.380;2023-04-03T15:12:27;0.60;;;0.60;;
28086;SDS011;15392;48.912;8.380;2023-04-03T15:14:53;0.57;;;0.57;;
28086;SDS011;15392;48.912;8.380;2023-04-03T15:17:20;0.70;;;0.70;;
28086;SDS011;15392;48.912;8.380;2023-04-03T15:19:47;0.80;;;0.80;;
28086;SDS011;15392;48.912;8.380;2023-04-03T15:22:17;0.85;;;0.85;;
28086;SDS011;15392;48.912;8.380;2023-04-03T15:24:44;1.17;;;1.17;;
28086;SDS011;15392;48.912;8.380;2023-04-03T15:27:11;1.00;;;1.00;;
28086;SDS011;15392;48.912;8.380;2023-04-03T15:29:38;1.00;;;1.00;;
28086;SDS011;15392;48.912;8.380;2023-04-03T15:32:06;1.00;;;1.00;;
28086;SDS011;15392;48.912;8.380;2023-04-03T15:34:34;0.90;;;0.90;;
28086;SDS011;15392;48.912;8.380;2023-04-03T15:37:00;1.02;;;1.02;;
28086;SDS011;15392;48.912;8.380;2023-04-03T15:39:26;0.90;;;0.90;;
28086;SDS011;15392;48.912;8.380;2023-04-03T15:41:53;0.80;;;0.80;;
28086;SDS011;15392;48.912;8.380;2023-04-03T15:44:21;1.05;;;0.90;;
28086;SDS011;15392;48.912;8.380;2023-04-03T15:46:47;0.65;;;0.65;;
28086;SDS011;15392;48.912;8.380;2023-04-03T15:49:16;0.60;;;0.60;;
28086;SDS011;15392;48.912;8.380;2023-04-03T15:51:44;0.47;;;0.47;;
28086;SDS011;15392;48.912;8.380;2023-04-03T15:54:10;0.60;;;0.60;;
28086;SDS011;15392;48.912;8.380;2023-04-03T15:56:36;0.63;;;0.63;;
28086;SDS011;15392;48.912;8.380;2023-04-03T15:59:02;0.50;;;0.50;;
28086;SDS011;15392;48.912;8.380;2023-04-03T16:01:28;0.60;;;0.60;;
28086;SDS011;15392;48.912;8.380;2023-04-03T16:03:54;0.82;;;0.80;;
28086;SDS011;15392;48.912;8.380;2023-04-03T16:06:20;0.35;;;0.35;;
28086;SDS011;15392;48.912;8.380;2023-04-03T16:08:47;0.40;;;0.40;;
28086;SDS011;15392;48.912;8.380;2023-04-03T16:11:14;0.60;;;0.60;;
28086;SDS011;15392;48.912;8.380;2023-04-03T16:13:40;0.40;;;0.40;;
28086;SDS011;15392;48.912;8.380;2023-04-03T16:16:06;0.80;;;0.80;;
28086;SDS011;15392;48.912;8.380;2023-04-03T16:18:32;0.50;;;0.50;;
28086;SDS011;15392;48.912;8.380;2023-04-03T16:21:00;0.60;;;0.60;;
28086;SDS011;15392;48.912;8.380;2023-04-03T16:23:26;0.70;;;0.70;;
28086;SDS011;15392;48.912;8.380;2023-04-03T16:25:52;0.70;;;0.70;;
28086;SDS011;15392;48.912;8.380;2023-04-03T16:28:17;0.85;;;0.60;;
28086;SDS011;15392;48.912;8.380;2023-04-03T16:30:44;0.57;;;0.57;;
28086;SDS011;15392;48.912;8.380;2023-04-03T16:33:12;0.80;;;0.68;;
28086;SDS011;15392;48.912;8.380;2023-04-03T16:35:38;0.60;;;0.60;;
28086;SDS011;15392;48.912;8.380;2023-04-03T16:38:07;0.63;;;0.63;;
28086;SDS011;15392;48.912;8.380;2023-04-03T16:40:32;0.73;;;0.70;;
28086;SDS011;15392;48.912;8.380;2023-04-03T16:42:59;0.68;;;0.68;;
28086;SDS011;15392;48.912;8.380;2023-04-03T16:45:26;0.60;;;0.60;;
28086;SDS011;15392;48.912;8.380;2023-04-03T16:47:52;0.40;;;0.40;;
28086;SDS011;15392;48.912;8.380;2023-04-03T16:50:18;0.68;;;0.68;;
28086;SDS011;15392;48.912;8.380;2023-04-03T16:52:47;0.70;;;0.70;;
28086;SDS011;15392;48.912;8.380;2023-04-03T16:55:13;0.60;;;0.60;;
28086;SDS011;15392;48.912;8.380;2023-04-03T16:57:39;0.77;;;0.77;;
28086;SDS011;15392;48.912;8.380;2023-04-03T17:00:05;0.70;;;0.70;;
28086;SDS011;15392;48.912;8.380;2023-04-03T17:02:32;0.73;;;0.73;;
28086;SDS011;15392;48.912;8.380;2023-04-03T17:04:58;0.70;;;0.70;;
28086;SDS011;15392;48.912;8.380;2023-04-03T17:07:24;0.70;;;0.70;;
28086;SDS011;15392;48.912;8.380;2023-04-03T17:09:51;0.85;;;0.85;;
28086;SDS011;15392;48.912;8.380;2023-04-03T17:12:19;0.77;;;0.77;;